Time;durP1;ratioP1;P1;durP2;ratioP2;P2;SDS_P1;SDS_P2;PMS_P1;PMS_P2;Temp;Humidity;BMP_temperature;BMP_pressure;BME280_temperature;BME280_humidity;BME280_pressure;Samples;Min_cycle;Max_cycle;Signal;HPM_P1;HPM_P2
2022/08/11 00:00:11;;;;;;;4.78;3.15;;;27.00;48.70;;;;;;5099285;28;20027;-75
2022/08/11 00:02:39;;;;;;;4.63;3.50;;;27.00;48.70;;;;;;5096948;28;20024;-76
2022/08/11 00:05:11;;;;;;;4.80;2.88;;;26.80;48.80;;;;;;5098376;28;20024;-77
2022/08/11 00:07:56;;;;;;;5.35;3.10;;;26.60;49.40;;;;;;5100557;28;20153;-76
2022/08/11 00:10:27;;;;;;;5.93;3.22;;;26.40;49.30;;;;;;5097933;28;20024;-76
2022/08/11 00:13:00;;;;;;;5.38;3.13;;;26.30;49.60;;;;;;5099118;28;20019;-76
2022/08/11 00:15:36;;;;;;;6.10;2.80;;;26.30;49.20;;;;;;5107219;28;20058;-76
2022/08/11 00:18:02;;;;;;;4.18;3.25;;;26.20;49.70;;;;;;5097474;28;20055;-76
2022/08/11 00:20:33;;;;;;;7.10;2.90;;;26.10;49.50;;;;;;5096093;28;20028;-76
2022/08/11 00:23:05;;;;;;;;;;;26.00;49.10;;;;;;5104196;28;20084;-75
2022/08/11 00:25:47;;;;;;;6.13;2.70;;;25.60;49.80;;;;;;5111038;28;19908;-76
2022/08/11 00:28:29;;;;;;;4.50;2.85;;;25.80;50.20;;;;;;5102274;28;20030;-76
2022/08/11 00:31:07;;;;;;;4.30;3.00;;;26.00;50.00;;;;;;5115022;28;20717;-76
2022/08/11 00:33:43;;;;;;;5.95;3.28;;;26.10;49.80;;;;;;5104455;28;20105;-76
2022/08/11 00:36:13;;;;;;;5.78;3.40;;;26.20;49.60;;;;;;5105688;28;20031;-76
2022/08/11 00:38:42;;;;;;;5.10;3.42;;;26.40;49.60;;;;;;5098961;28;20028;-76
2022/08/11 00:41:27;;;;;;;4.20;3.45;;;26.50;49.60;;;;;;5100799;28;20019;-76
2022/08/11 00:44:25;;;;;;;5.25;4.70;;;26.60;49.50;;;;;;5090385;28;20110;-76
2022/08/11 00:47:04;;;;;;;7.70;3.75;;;26.60;49.00;;;;;;5099302;28;20039;-76
2022/08/11 00:49:45;;;;;;;4.20;2.70;;;26.50;49.30;;;;;;5107887;28;20073;-76
2022/08/11 00:52:52;;;;;;;4.28;3.08;;;25.90;49.50;;;;;;5096998;28;20047;-76
2022/08/11 00:55:56;;;;;;;6.13;2.88;;;25.90;50.40;;;;;;5103759;28;20121;-76
2022/08/11 00:58:40;;;;;;;5.03;3.15;;;26.10;50.20;;;;;;5106609;28;20024;-76
2022/08/11 01:01:15;;;;;;;5.13;3.28;;;26.20;50.00;;;;;;5094834;28;20356;-76
2022/08/11 01:04:03;;;;;;;3.78;2.88;;;26.30;50.10;;;;;;5096241;28;20031;-76
2022/08/11 01:06:54;;;;;;;6.57;2.97;;;26.30;50.00;;;;;;5104616;28;20103;-76
2022/08/11 01:09:52;;;;;;;4.88;3.08;;;26.20;50.30;;;;;;5103220;28;20028;-76
2022/08/11 01:12:39;;;;;;;8.32;2.60;;;25.90;50.70;;;;;;5097908;28;20502;-76
2022/08/11 01:15:17;;;;;;;4.78;2.97;;;25.90;50.80;;;;;;5092921;28;20064;-76
2022/08/11 01:17:46;;;;;;;7.60;3.10;;;25.90;50.60;;;;;;5093615;28;20020;-76
2022/08/11 01:20:42;;;;;;;4.93;2.90;;;25.80;51.00;;;;;;5097563;28;20382;-76
2022/08/11 01:23:35;;;;;;;4.95;2.97;;;25.80;50.90;;;;;;5096858;28;20090;-76
2022/08/11 01:26:13;;;;;;;5.07;2.65;;;25.90;50.70;;;;;;5097034;28;20039;-75
2022/08/11 01:28:57;;;;;;;5.68;2.78;;;25.90;50.50;;;;;;5096753;28;20036;-75
2022/08/11 01:31:35;;;;;;;4.60;3.20;;;26.00;50.40;;;;;;5108461;28;20023;-76
2022/08/11 01:34:13;;;;;;;5.40;3.05;;;26.00;50.30;;;;;;5102983;28;20115;-76
2022/08/11 01:37:13;;;;;;;6.25;2.90;;;26.10;50.60;;;;;;5097100;28;20482;-76
2022/08/11 01:40:00;;;;;;;4.68;3.00;;;25.90;50.70;;;;;;5094344;28;20121;-75
2022/08/11 01:46:00;;;;;;;5.10;2.72;;;25.90;50.60;;;;;;5095493;28;20399;-76
2022/08/11 01:48:40;;;;;;;7.10;3.10;;;25.90;50.70;;;;;;5096291;28;20020;-76
2022/08/11 01:51:44;;;;;;;3.95;2.75;;;25.80;50.90;;;;;;5108173;28;20027;-76
2022/08/11 01:54:42;;;;;;;4.30;2.60;;;25.80;50.10;;;;;;5090397;28;20031;-76
2022/08/11 01:57:45;;;;;;;5.32;2.70;;;25.90;50.30;;;;;;5096919;28;20057;-76
2022/08/11 02:00:18;;;;;;;4.15;2.90;;;25.80;50.50;;;;;;5096031;28;20117;-76
2022/08/11 02:02:58;;;;;;;4.63;3.05;;;25.80;50.80;;;;;;5098694;28;20107;-76
2022/08/11 02:05:27;;;;;;;;;;;25.70;51.00;;;;;;5098008;28;20424;-76
2022/08/11 02:08:30;;;;;;;6.72;2.85;;;25.50;51.10;;;;;;5102754;28;19943;-76
2022/08/11 02:11:30;;;;;;;4.53;2.72;;;25.50;51.30;;;;;;5096051;28;20089;-76
2022/08/11 02:14:23;;;;;;;6.95;3.08;;;25.40;51.50;;;;;;5093847;28;20032;-76
2022/08/11 02:17:09;;;;;;;5.55;3.20;;;25.40;52.00;;;;;;5095530;28;20031;-76
2022/08/11 02:26:08;;;;;;;6.45;3.50;;;25.30;51.90;;;;;;5094693;28;20035;-76
2022/08/11 02:29:11;;;;;;;5.30;3.38;;;25.10;51.90;;;;;;5097859;28;20021;-76
2022/08/11 02:35:11;;;;;;;4.30;2.78;;;25.10;51.60;;;;;;5099516;28;20070;-75
2022/08/11 02:37:44;;;;;;;4.20;2.90;;;25.00;51.90;;;;;;5095625;28;20027;-74
2022/08/11 02:40:26;;;;;;;3.67;2.78;;;25.00;52.00;;;;;;5101642;28;20020;-76
2022/08/11 02:43:21;;;;;;;6.10;3.05;;;25.00;51.80;;;;;;5085524;28;20386;-75
2022/08/11 02:46:16;;;;;;;4.28;2.70;;;25.10;51.70;;;;;;5092139;28;20032;-76
2022/08/11 02:51:41;;;;;;;3.80;2.63;;;25.10;51.60;;;;;;5099908;28;20113;-76
2022/08/11 02:54:29;;;;;;;4.93;2.67;;;25.10;51.60;;;;;;5098896;28;20067;-76
2022/08/11 02:57:15;;;;;;;4.15;2.80;;;25.30;51.70;;;;;;5099125;28;20409;-75
2022/08/11 02:59:59;;;;;;;5.97;2.90;;;25.50;52.00;;;;;;5103454;28;20034;-76
2022/08/11 03:02:42;;;;;;;4.22;2.92;;;25.40;52.10;;;;;;5107770;28;20112;-76
2022/08/11 03:05:15;;;;;;;4.53;2.97;;;25.60;51.90;;;;;;5113315;28;20028;-76
2022/08/11 03:08:05;;;;;;;4.57;2.78;;;25.40;52.20;;;;;;5099514;28;20023;-76
2022/08/11 03:16:43;;;;;;;4.03;2.70;;;25.40;52.40;;;;;;5086413;28;20085;-76
2022/08/11 03:16:47;;;;;;;4.97;2.90;;;25.50;52.30;;;;;;5103566;28;20169;-75
2022/08/11 03:19:15;;;;;;;4.10;2.97;;;25.50;52.40;;;;;;5101028;28;20020;-75
2022/08/11 03:22:11;;;;;;;5.22;2.95;;;25.50;52.20;;;;;;5097971;28;20057;-76
2022/08/11 03:24:53;;;;;;;4.10;2.85;;;25.50;52.20;;;;;;5081833;28;20064;-76
2022/08/11 03:27:38;;;;;;;3.90;2.70;;;25.20;52.90;;;;;;5095026;28;20054;-75
2022/08/11 03:30:09;;;;;;;6.95;2.97;;;25.40;52.80;;;;;;5104638;28;20099;-76
2022/08/11 03:37:08;;;;;;;5.57;2.90;;;25.30;53.00;;;;;;5016512;28;20045;-75
2022/08/11 03:40:12;;;;;;;4.93;3.10;;;24.90;53.90;;;;;;4951787;28;20106;-75
2022/08/11 03:43:00;;;;;;;6.40;2.97;;;25.00;53.90;;;;;;4947860;29;20042;-75
2022/08/11 03:45:56;;;;;;;5.10;3.00;;;25.20;53.90;;;;;;4953718;29;20038;-75
2022/08/11 03:48:29;;;;;;;4.63;3.08;;;25.40;53.20;;;;;;4954091;29;20039;-76
2022/08/11 03:51:09;;;;;;;4.95;3.00;;;25.50;52.80;;;;;;4953893;29;20046;-75
2022/08/11 03:53:59;;;;;;;5.68;2.88;;;25.50;53.50;;;;;;4946008;28;20051;-77
2022/08/11 03:56:47;;;;;;;5.25;2.95;;;25.50;53.50;;;;;;4944568;28;20040;-76
2022/08/11 03:59:22;;;;;;;6.32;3.42;;;25.50;53.50;;;;;;4954043;29;20039;-75
2022/08/11 04:02:27;;;;;;;5.13;2.88;;;25.20;53.50;;;;;;4954720;29;20062;-75
2022/08/11 04:05:15;;;;;;;5.57;2.80;;;24.60;55.20;;;;;;4954693;29;20038;-76
2022/08/11 04:08:07;;;;;;;7.32;3.70;;;24.30;56.20;;;;;;5027195;28;20049;-76
2022/08/11 04:10:54;;;;;;;7.05;3.40;;;24.50;56.20;;;;;;5032095;28;20037;-76
2022/08/11 04:13:44;;;;;;;9.02;3.90;;;24.00;57.00;;;;;;5070392;28;20042;-75
2022/08/11 04:16:40;;;;;;;7.38;3.35;;;24.10;56.80;;;;;;5104648;28;20043;-75
2022/08/11 04:19:28;;;;;;;5.47;3.50;;;24.40;56.30;;;;;;5094297;28;20020;-74
2022/08/11 04:22:34;;;;;;;6.88;3.20;;;24.50;56.50;;;;;;5100052;28;20961;-77
2022/08/11 04:25:21;;;;;;;7.13;4.20;;;24.80;55.70;;;;;;5097843;28;20027;-77
2022/08/11 04:28:14;;;;;;;6.82;3.35;;;25.20;55.20;;;;;;5106559;27;20027;-76
2022/08/11 04:31:44;;;;;;;5.28;3.45;;;25.40;54.60;;;;;;5093549;28;20420;-75
2022/08/11 04:34:46;;;;;;;5.22;3.22;;;25.60;54.50;;;;;;4934643;29;20099;-76
2022/08/11 04:37:56;;;;;;;5.43;3.30;;;25.70;54.10;;;;;;4934807;29;20040;-77
2022/08/11 04:40:52;;;;;;;5.22;3.55;;;25.90;54.00;;;;;;4859506;29;20149;-77
2022/08/11 04:43:38;;;;;;;5.63;3.10;;;26.00;54.20;;;;;;4859303;29;20509;-77
2022/08/11 04:46:41;;;;;;;5.45;3.30;;;25.70;54.40;;;;;;4859527;29;20541;-77
2022/08/11 05:01:42;;;;;;;9.20;3.35;;;25.70;55.70;;;;;;4859380;29;20036;-77
2022/08/11 05:07:44;;;;;;;4.80;3.17;;;26.40;54.80;;;;;;4859265;29;20141;-77
2022/08/11 05:10:45;;;;;;;9.32;3.85;;;26.60;54.40;;;;;;4952935;28;20154;-76
2022/08/11 05:36:38;;;;;;;5.72;2.80;;;27.30;54.20;;;;;;5093985;28;20062;-77
2022/08/11 05:56:20;;;;;;;5.15;2.97;;;28.30;53.40;;;;;;5011080;28;20057;-76
2022/08/11 05:58:51;;;;;;;5.53;2.80;;;28.40;53.50;;;;;;5011684;28;20062;-76
2022/08/11 06:01:29;;;;;;;4.72;2.67;;;28.40;52.90;;;;;;5011229;28;20069;-76
2022/08/11 06:04:13;;;;;;;6.45;2.72;;;28.50;52.80;;;;;;5015670;28;20058;-77
2022/08/11 06:06:50;;;;;;;4.55;2.88;;;28.50;52.30;;;;;;5015077;28;20037;-76
2022/08/11 06:09:25;;;;;;;5.57;2.58;;;28.50;52.50;;;;;;5015015;28;20401;-76
2022/08/11 06:11:52;;;;;;;3.88;2.63;;;28.70;51.70;;;;;;4998582;28;20030;-76
2022/08/11 06:14:19;;;;;;;3.45;2.25;;;28.80;52.20;;;;;;5015074;28;20046;-76
2022/08/11 06:16:48;;;;;;;4.22;2.25;;;29.00;51.60;;;;;;5071444;28;20056;-76
2022/08/11 06:19:15;;;;;;;3.90;2.40;;;29.10;50.80;;;;;;5058672;28;20174;-77
2022/08/11 06:21:45;;;;;;;5.10;2.55;;;29.10;50.50;;;;;;5058924;28;20081;-76
2022/08/11 06:24:13;;;;;;;3.75;2.22;;;29.00;49.10;;;;;;5059144;28;20027;-77
2022/08/11 06:26:49;;;;;;;3.22;2.20;;;28.80;47.80;;;;;;5077005;28;20041;-77
2022/08/11 06:29:18;;;;;;;3.45;2.13;;;28.50;46.70;;;;;;5076694;28;20028;-77
2022/08/11 06:31:59;;;;;;;5.57;2.20;;;28.20;47.30;;;;;;5059006;28;20020;-86
2022/08/11 06:34:44;;;;;;;3.85;2.30;;;27.90;47.00;;;;;;5076356;28;20032;-76
2022/08/11 06:37:15;;;;;;;3.65;2.20;;;27.40;47.40;;;;;;5075941;28;20032;-76
2022/08/11 06:39:52;;;;;;;3.78;2.20;;;27.60;48.50;;;;;;5075958;28;20028;-75
2022/08/11 06:42:44;;;;;;;4.18;2.33;;;28.40;48.60;;;;;;5075739;28;20028;-75
2022/08/11 06:45:23;;;;;;;5.63;2.45;;;29.20;48.70;;;;;;5063984;28;20034;-75
2022/08/11 06:47:50;;;;;;;3.33;2.20;;;29.80;46.50;;;;;;5096005;28;20099;-76
2022/08/11 06:53:19;;;;;;;3.22;2.13;;;30.40;45.20;;;;;;4824109;28;10001011;-76
2022/08/11 07:01:46;;;;;;;4.23;2.10;;;29.80;46.90;;;;;;5113910;28;20457;-77
2022/08/11 07:04:19;;;;;;;5.00;2.20;;;29.70;45.80;;;;;;5113069;28;20031;-76
2022/08/11 07:16:03;;;;;;;3.50;2.15;;;30.30;46.10;;;;;;5113279;28;20049;-78
2022/08/11 07:29:54;;;;;;;3.40;1.95;;;30.60;45.20;;;;;;5113325;28;20484;-77
2022/08/11 07:32:25;;;;;;;4.95;2.20;;;30.70;45.20;;;;;;5112589;28;20034;-76
2022/08/11 07:34:59;;;;;;;3.63;2.10;;;31.00;45.70;;;;;;5094653;28;20035;-75
2022/08/11 07:37:27;;;;;;;3.45;2.03;;;31.50;44.80;;;;;;5112648;28;20376;-76
2022/08/11 07:39:54;;;;;;;4.05;2.13;;;31.80;45.00;;;;;;5113228;28;20093;-76
2022/08/11 07:42:26;;;;;;;3.97;1.85;;;31.90;43.30;;;;;;5112674;28;20020;-78
2022/08/11 07:53:09;;;;;;;3.58;1.83;;;31.60;43.50;;;;;;5112606;28;20116;-76
2022/08/11 07:55:37;;;;;;;5.13;1.90;;;31.40;43.50;;;;;;5132667;27;20406;-81
2022/08/11 08:20:12;;;;;;;4.35;2.20;;;31.00;41.80;;;;;;5132461;27;20553;-75
2022/08/11 08:22:38;;;;;;;5.03;1.85;;;31.00;43.90;;;;;;5133056;27;20106;-79
2022/08/11 08:25:07;;;;;;;3.90;1.90;;;31.30;42.10;;;;;;5113096;28;20505;-79
2022/08/11 08:27:35;;;;;;;4.22;1.80;;;31.50;42.20;;;;;;5133781;27;20026;-78
2022/08/11 08:32:57;;;;;;;6.72;2.00;;;31.10;41.60;;;;;;5133454;27;20165;-85
2022/08/11 08:35:24;;;;;;;4.03;2.20;;;31.00;41.60;;;;;;5132580;27;20772;-78
2022/08/11 08:37:51;;;;;;;3.67;1.80;;;31.30;42.90;;;;;;5133437;27;20030;-81
2022/08/11 08:40:18;;;;;;;5.07;1.77;;;31.40;42.00;;;;;;5132446;27;20027;-85
2022/08/11 08:43:07;;;;;;;3.60;1.75;;;31.50;42.20;;;;;;5114907;27;20023;-79
2022/08/11 08:45:35;;;;;;;5.00;1.90;;;31.60;42.10;;;;;;5114706;27;20046;-82
2022/08/11 08:48:24;;;;;;;4.88;1.90;;;31.70;42.00;;;;;;5114635;27;20019;-76
2022/08/11 08:53:50;;;;;;;4.38;2.15;;;31.90;42.30;;;;;;5134072;27;20050;-87
2022/08/11 08:56:17;;;;;;;5.82;1.90;;;31.80;41.80;;;;;;5133006;27;20031;-81
2022/08/11 08:58:46;;;;;;;3.20;1.85;;;31.80;42.30;;;;;;5133120;27;20016;-76
2022/08/11 09:01:15;;;;;;;8.23;2.38;;;31.60;41.90;;;;;;5114237;28;20409;-75
2022/08/11 09:03:42;;;;;;;3.67;2.00;;;31.20;42.80;;;;;;5131092;27;20050;-77
2022/08/11 09:06:09;;;;;;;4.25;1.80;;;31.50;42.20;;;;;;5131406;27;20025;-85
2022/08/11 09:08:35;;;;;;;3.05;1.70;;;31.80;42.90;;;;;;5102705;27;20028;-76
2022/08/11 09:13:50;;;;;;;2.72;1.75;;;32.10;42.70;;;;;;5108314;28;20030;-76
2022/08/11 09:16:17;;;;;;;2.75;1.60;;;32.20;41.90;;;;;;5109189;28;20039;-77
2022/08/11 09:18:43;;;;;;;4.72;1.83;;;32.30;41.80;;;;;;5091429;28;20027;-80
2022/08/11 09:21:13;;;;;;;5.00;1.90;;;32.70;41.30;;;;;;5091361;28;20059;-79
2022/08/11 09:29:10;;;;;;;4.10;1.73;;;31.10;43.00;;;;;;5109333;28;20556;-73
2022/08/11 09:31:37;;;;;;;3.67;1.60;;;31.40;41.40;;;;;;5110055;28;20382;-77
2022/08/11 09:34:03;;;;;;;3.22;1.70;;;31.90;41.10;;;;;;5111319;28;20031;-85
2022/08/11 09:42:01;;;;;;;3.38;1.77;;;32.50;41.20;;;;;;5110799;28;20059;-80
2022/08/11 09:47:17;;;;;;;3.97;1.70;;;32.30;41.60;;;;;;5111455;28;20038;-77
2022/08/11 09:49:44;;;;;;;3.28;1.60;;;32.50;41.30;;;;;;5111559;28;20420;-78
2022/08/11 09:52:13;;;;;;;2.90;1.60;;;32.60;42.10;;;;;;5110048;28;20371;-83
2022/08/11 09:54:41;;;;;;;5.03;1.50;;;32.80;40.80;;;;;;5092376;28;20047;-85
2022/08/11 09:59:52;;;;;;;4.45;1.55;;;32.60;39.80;;;;;;5108896;28;20454;-79
2022/08/11 10:02:25;;;;;;;2.78;1.40;;;32.80;40.30;;;;;;5092118;28;20023;-78
2022/08/11 10:07:00;;;;;;;3.70;1.80;;;32.70;39.60;;;;;;5109020;28;20027;-81
2022/08/11 10:07:39;;;;;;;3.35;1.80;;;32.40;39.30;;;;;;5090453;28;20035;-79
2022/08/11 10:10:06;;;;;;;2.85;1.40;;;32.00;40.40;;;;;;5089798;28;20028;-79
2022/08/11 10:12:36;;;;;;;3.13;1.80;;;32.00;39.80;;;;;;5072208;28;20035;-76
2022/08/11 10:20:50;;;;;;;3.13;1.60;;;33.10;38.60;;;;;;5090088;28;20059;-80
2022/08/11 10:28:47;;;;;;;45.58;6.93;;;32.20;40.20;;;;;;5089929;28;20031;-75
2022/08/11 10:34:02;;;;;;;7.07;2.47;;;33.20;40.40;;;;;;5089132;28;20077;-77
2022/08/11 10:36:54;;;;;;;4.22;1.80;;;33.60;39.70;;;;;;5088542;28;20387;-77
2022/08/11 10:39:21;;;;;;;4.40;1.77;;;34.10;39.30;;;;;;5085505;28;20047;-76
2022/08/11 10:44:43;;;;;;;3.20;1.60;;;34.10;40.20;;;;;;5091402;28;20043;-81
2022/08/11 11:00:59;;;;;;;3.05;1.60;;;33.50;39.40;;;;;;5113496;28;20085;-80
2022/08/11 11:03:28;;;;;;;2.92;1.63;;;33.50;39.60;;;;;;5112099;28;20045;-77
2022/08/11 11:06:02;;;;;;;4.20;1.70;;;33.50;39.80;;;;;;5112536;28;20547;-81
2022/08/11 11:11:16;;;;;;;4.90;1.80;;;33.80;40.00;;;;;;5094193;28;20031;-80
2022/08/11 11:19:24;;;;;;;3.17;1.83;;;33.20;39.50;;;;;;5112428;28;20489;-86
2022/08/11 11:21:54;;;;;;;3.17;1.60;;;33.10;39.50;;;;;;5094072;28;20027;-81
2022/08/11 11:24:50;;;;;;;20.73;5.57;;;33.20;39.70;;;;;;5111022;28;20026;-80
2022/08/11 11:27:29;;;;;;;8.15;2.70;;;33.60;39.90;;;;;;5112534;28;20118;-77
2022/08/11 11:30:05;;;;;;;4.78;1.83;;;34.00;41.00;;;;;;5112624;28;20027;-80
2022/08/11 11:33:03;;;;;;;5.85;1.85;;;34.40;38.20;;;;;;5114092;28;20035;-78
2022/08/11 11:35:47;;;;;;;2.70;1.50;;;34.10;38.90;;;;;;5113539;28;20074;-76
2022/08/11 11:38:13;;;;;;;3.67;1.58;;;33.70;38.10;;;;;;5112187;28;20050;-77
2022/08/11 11:40:40;;;;;;;3.72;1.60;;;33.90;39.30;;;;;;5113634;28;20120;-73
2022/08/11 11:43:06;;;;;;;3.42;1.67;;;34.10;38.80;;;;;;5112442;28;20120;-82
2022/08/11 11:45:32;;;;;;;4.10;1.60;;;34.30;38.10;;;;;;5109811;28;20043;-77
2022/08/11 11:47:59;;;;;;;2.70;1.58;;;34.30;39.60;;;;;;5094012;28;20038;-76
2022/08/11 11:50:33;;;;;;;3.83;1.58;;;34.40;38.60;;;;;;5114181;28;20034;-76
2022/08/11 11:53:02;;;;;;;5.55;1.70;;;34.30;39.20;;;;;;5111888;28;20082;-75
2022/08/11 11:55:29;;;;;;;5.10;1.75;;;34.20;40.30;;;;;;5131728;27;20043;-77
2022/08/11 12:03:32;;;;;;;3.95;1.73;;;34.50;39.20;;;;;;5132478;27;20030;-78
2022/08/11 12:05:59;;;;;;;4.53;1.73;;;34.60;39.70;;;;;;5136063;27;20016;-79
2022/08/11 12:08:26;;;;;;;2.50;1.45;;;34.40;38.90;;;;;;5134868;27;20443;-81
2022/08/11 12:13:49;;;;;;;4.50;1.85;;;34.30;39.20;;;;;;5136414;27;20053;-81
2022/08/11 12:16:17;;;;;;;6.65;2.10;;;34.00;39.30;;;;;;5136386;27;20058;-79
2022/08/11 12:18:46;;;;;;;6.05;1.75;;;34.00;40.00;;;;;;5136500;27;20366;-79
2022/08/11 12:21:14;;;;;;;6.07;2.08;;;33.50;38.90;;;;;;5117986;27;20031;-77
2022/08/11 12:29:13;;;;;;;6.82;1.83;;;32.90;39.90;;;;;;5135072;27;20038;-79
2022/08/11 12:31:41;;;;;;;4.35;1.85;;;33.10;40.60;;;;;;5135293;27;20086;-77
2022/08/11 12:34:15;;;;;;;14.10;2.10;;;33.30;40.10;;;;;;5135674;27;20042;-78
2022/08/11 12:36:56;;;;;;;6.00;1.95;;;33.60;39.50;;;;;;5135056;27;20121;-78
2022/08/11 12:53:24;;;;;;;3.85;1.45;;;33.90;39.70;;;;;;4765881;27;10000352;-76
2022/08/11 12:58:40;;;;;;;3.92;1.50;;;34.00;38.90;;;;;;5110813;28;20493;-77
2022/08/11 13:06:37;;;;;;;2.65;1.50;;;34.10;38.80;;;;;;5112118;28;20076;-89
2022/08/11 13:09:05;;;;;;;2.40;1.40;;;33.80;39.60;;;;;;5112750;28;20644;-75
2022/08/11 13:14:17;;;;;;;2.38;1.30;;;33.40;39.30;;;;;;5111629;28;20092;-78
2022/08/11 13:19:29;;;;;;;3.47;1.40;;;33.30;39.50;;;;;;5111140;28;20077;-78
2022/08/11 13:21:56;;;;;;;2.85;1.38;;;33.70;39.70;;;;;;5110726;28;20506;-76
2022/08/11 13:24:22;;;;;;;2.83;1.52;;;34.00;39.20;;;;;;5111254;28;20073;-77
2022/08/11 13:26:49;;;;;;;3.50;1.40;;;34.20;39.20;;;;;;5113148;28;20024;-77
2022/08/11 13:29:25;;;;;;;4.53;1.52;;;34.20;39.10;;;;;;5095523;28;20096;-85
2022/08/11 13:31:53;;;;;;;3.15;1.40;;;34.30;38.70;;;;;;5096445;28;20031;-91
2022/08/11 13:34:22;;;;;;;4.15;1.60;;;33.80;38.90;;;;;;5114427;28;20039;-76
2022/08/11 13:36:52;;;;;;;4.93;1.40;;;33.70;38.70;;;;;;5113523;28;20110;-77
2022/08/11 13:39:18;;;;;;;2.60;1.50;;;33.90;39.10;;;;;;5113958;28;20493;-80
2022/08/11 13:41:46;;;;;;;2.75;1.40;;;34.10;39.00;;;;;;5114119;28;20081;-77
2022/08/11 13:44:15;;;;;;;2.97;1.60;;;34.10;38.80;;;;;;5114103;28;20035;-80
2022/08/11 13:46:42;;;;;;;3.65;1.42;;;34.10;39.90;;;;;;5114647;28;20475;-78
2022/08/11 13:49:09;;;;;;;3.80;1.35;;;33.70;38.50;;;;;;5114248;28;20024;-76
2022/08/11 13:51:38;;;;;;;3.35;1.52;;;33.60;39.30;;;;;;5113516;28;20347;-75
2022/08/11 13:54:10;;;;;;;2.55;1.40;;;33.70;39.40;;;;;;5113862;28;20390;-83
2022/08/11 13:56:40;;;;;;;2.65;1.50;;;33.70;38.60;;;;;;5095632;28;20027;-79
2022/08/11 13:59:10;;;;;;;2.40;1.43;;;33.50;38.60;;;;;;5113935;28;20490;-76
2022/08/11 14:01:46;;;;;;;3.20;1.60;;;33.60;39.30;;;;;;5113880;28;20024;-76
2022/08/11 14:04:15;;;;;;;2.92;1.40;;;33.70;39.10;;;;;;5114107;28;20016;-76
2022/08/11 14:06:47;;;;;;;2.22;1.40;;;33.70;38.60;;;;;;5113703;28;20020;-76
2022/08/11 14:09:19;;;;;;;2.30;1.35;;;34.00;39.00;;;;;;5113754;28;20448;-82
2022/08/11 14:14:34;;;;;;;2.42;1.40;;;33.30;38.30;;;;;;5113588;28;20443;-78
2022/08/11 14:17:06;;;;;;;2.90;1.47;;;33.00;40.00;;;;;;5113517;28;20509;-85
2022/08/11 14:19:38;;;;;;;4.78;1.33;;;33.40;39.30;;;;;;5113069;28;20339;-81
2022/08/11 14:22:08;;;;;;;3.83;1.50;;;33.60;39.00;;;;;;5113284;28;20023;-77
2022/08/11 14:24:38;;;;;;;3.03;1.50;;;33.80;38.80;;;;;;5117313;28;20481;-79
2022/08/11 14:27:06;;;;;;;2.50;1.40;;;34.00;38.70;;;;;;5117121;28;20034;-76
2022/08/11 14:29:37;;;;;;;2.83;1.50;;;34.00;38.80;;;;;;5116225;28;20099;-76
2022/08/11 14:32:06;;;;;;;5.47;1.60;;;34.10;39.00;;;;;;5116911;28;20051;-74
2022/08/11 14:34:33;;;;;;;3.25;1.58;;;34.00;39.70;;;;;;5117323;28;20042;-76
2022/08/11 14:37:11;;;;;;;2.38;1.45;;;34.00;39.20;;;;;;5098170;28;20497;-77
2022/08/11 14:39:49;;;;;;;3.47;1.40;;;34.30;39.70;;;;;;5116627;28;20024;-82
2022/08/11 14:48:03;;;;;;;3.10;1.40;;;34.50;38.80;;;;;;5117582;28;20501;-76
2022/08/11 14:50:31;;;;;;;4.22;1.40;;;34.10;39.30;;;;;;5098846;28;20028;-76
2022/08/11 14:52:59;;;;;;;3.42;1.40;;;34.00;39.10;;;;;;5114412;28;20039;-77
2022/08/11 14:58:22;;;;;;;2.70;1.50;;;33.90;39.20;;;;;;5116385;28;20570;-77
2022/08/11 15:00:53;;;;;;;3.42;1.38;;;34.00;39.20;;;;;;5116313;28;20016;-79
2022/08/11 15:03:21;;;;;;;2.53;1.50;;;34.00;39.50;;;;;;5116123;28;20028;-78
2022/08/11 15:05:56;;;;;;;2.83;1.30;;;33.90;39.60;;;;;;5116345;28;20108;-78
2022/08/11 15:08:53;;;;;;;3.40;1.50;;;34.10;39.20;;;;;;5116311;28;20022;-76
2022/08/11 15:13:58;;;;;;;2.60;1.50;;;34.00;39.90;;;;;;5116164;28;20081;-78
2022/08/11 15:19:12;;;;;;;2.70;1.40;;;33.90;39.60;;;;;;5115965;28;20031;-80
2022/08/11 15:24:23;;;;;;;2.58;1.40;;;33.60;39.00;;;;;;5116261;28;20030;-78
2022/08/11 15:38:01;;;;;;;3.95;1.40;;;33.80;38.90;;;;;;5052699;28;20127;-77
2022/08/11 15:46:15;;;;;;;;;;;33.30;39.80;;;;;;5053513;28;20404;-79
2022/08/11 15:48:47;;;;;;;2.50;1.50;;;33.40;39.60;;;;;;5052742;28;19908;-79
2022/08/11 15:51:29;;;;;;;2.42;1.40;;;33.60;39.50;;;;;;5052866;28;20032;-78
2022/08/11 15:53:58;;;;;;;3.05;1.48;;;33.60;39.60;;;;;;5053014;28;20140;-77
2022/08/11 15:56:29;;;;;;;4.18;1.58;;;33.60;39.50;;;;;;5052909;28;20071;-76
2022/08/11 16:04:30;;;;;;;4.40;1.80;;;33.10;40.00;;;;;;5052563;28;20411;-77
2022/08/11 16:07:00;;;;;;;3.22;1.52;;;33.30;39.90;;;;;;5052462;28;20048;-77
2022/08/11 16:09:43;;;;;;;5.67;1.60;;;33.50;39.80;;;;;;5052317;28;20060;-77
2022/08/11 16:12:13;;;;;;;6.38;1.70;;;33.60;40.30;;;;;;5080415;28;20093;-77
2022/08/11 16:17:31;;;;;;;3.13;1.63;;;33.60;40.60;;;;;;5115397;28;20440;-77
2022/08/11 16:19:58;;;;;;;2.90;1.50;;;33.70;40.40;;;;;;5114601;28;20042;-77
2022/08/11 16:22:38;;;;;;;4.00;1.42;;;33.70;40.30;;;;;;5115130;28;20072;-77
2022/08/11 16:25:09;;;;;;;2.55;1.45;;;33.60;40.40;;;;;;5114874;28;20024;-76
2022/08/11 16:27:37;;;;;;;;;;;33.70;40.60;;;;;;5115218;28;20039;-80
2022/08/11 16:30:07;;;;;;;5.03;1.50;;;33.50;40.70;;;;;;5115139;28;19910;-81
2022/08/11 16:32:35;;;;;;;3.15;1.80;;;32.60;41.30;;;;;;5115524;28;20036;-81
2022/08/11 16:40:52;;;;;;;5.95;1.83;;;30.50;43.20;;;;;;5114850;28;20111;-79
2022/08/11 16:48:53;;;;;;;2.22;1.40;;;30.50;43.30;;;;;;5114865;28;20050;-77
2022/08/11 16:51:19;;;;;;;2.40;1.45;;;30.60;43.30;;;;;;5114872;28;20083;-75
2022/08/11 16:53:46;;;;;;;3.85;1.60;;;30.40;43.70;;;;;;5114136;28;20397;-81
2022/08/11 16:56:20;;;;;;;4.03;1.73;;;30.20;43.50;;;;;;5114384;28;20035;-75
2022/08/11 17:01:37;;;;;;;3.25;1.80;;;30.20;44.00;;;;;;5115052;28;20043;-76
2022/08/11 17:13:07;;;;;;;3.50;1.88;;;29.50;44.50;;;;;;5026474;28;20072;-75
2022/08/11 17:19:08;;;;;;;3.78;2.58;;;30.00;44.10;;;;;;4952399;28;20517;-82
2022/08/11 17:23:45;;;;;;;4.05;2.30;;;29.50;44.00;;;;;;4936766;29;20044;-77
2022/08/11 17:24:29;;;;;;;3.10;1.92;;;29.30;44.30;;;;;;4952870;28;20545;-76
2022/08/11 17:26:56;;;;;;;5.20;2.70;;;29.00;44.60;;;;;;4942479;28;20043;-80
2022/08/11 17:29:41;;;;;;;4.85;1.92;;;29.10;44.90;;;;;;4933900;29;20032;-76
2022/08/11 17:38:07;;;;;;;4.80;2.05;;;28.30;45.60;;;;;;4952538;29;20038;-76
2022/08/11 17:40:38;;;;;;;3.40;1.88;;;28.90;45.10;;;;;;4951854;28;20031;-77
2022/08/11 17:48:32;;;;;;;3.88;1.90;;;29.50;44.20;;;;;;4667462;28;10001033;-78
2022/08/11 17:51:03;;;;;;;17.38;2.60;;;29.70;43.80;;;;;;5015153;28;20550;-76
2022/08/11 18:03:27;;;;;;;2.92;1.80;;;29.60;44.20;;;;;;5133427;27;20483;-76
2022/08/11 18:04:42;;;;;;;4.35;1.75;;;30.00;44.20;;;;;;5115534;28;20036;-75
